Time;durP1;ratioP1;P1;durP2;ratioP2;P2;SDS_P1;SDS_P2;PMS_P1;PMS_P2;Temp;Humidity;BMP_temperature;BMP_pressure;BME280_temperature;BME280_humidity;BME280_pressure;Samples;Min_cycle;Max_cycle;Signal;HPM_P1;HPM_P2
2022/07/22 00:02:11;;;;;;;181.02;37.28;;;16.50;99.90;;;;;;5068620;28;20050;-77
2022/07/22 00:04:38;;;;;;;131.43;34.97;;;16.40;99.90;;;;;;5048388;28;20147;-76
2022/07/22 00:07:04;;;;;;;228.02;42.83;;;16.50;99.90;;;;;;5053146;28;20036;-77
2022/07/22 00:09:32;;;;;;;192.93;41.88;;;16.50;99.90;;;;;;5050560;28;20074;-75
2022/07/22 00:11:59;;;;;;;320.33;46.60;;;16.50;99.90;;;;;;5050915;28;20136;-75
2022/07/22 00:14:26;;;;;;;198.65;38.30;;;16.50;99.90;;;;;;5071935;28;20052;-78
2022/07/22 00:16:53;;;;;;;267.08;44.05;;;16.50;99.90;;;;;;5043151;28;20048;-76
2022/07/22 00:19:20;;;;;;;402.90;51.55;;;16.60;99.90;;;;;;5069027;28;20048;-77
2022/07/22 00:21:46;;;;;;;522.95;62.80;;;16.50;99.90;;;;;;5071389;28;20101;-77
2022/07/22 00:24:13;;;;;;;298.42;46.72;;;16.50;99.90;;;;;;5068545;28;20387;-77
2022/07/22 00:26:40;;;;;;;492.08;59.72;;;16.60;99.90;;;;;;5062272;28;20502;-77
2022/07/22 00:29:07;;;;;;;369.02;47.75;;;16.60;99.90;;;;;;5051363;28;20129;-77
2022/07/22 00:31:34;;;;;;;200.23;39.33;;;16.60;99.90;;;;;;5052804;28;20052;-77
2022/07/22 00:34:02;;;;;;;133.35;32.80;;;16.50;99.90;;;;;;5053752;28;20040;-77
2022/07/22 00:36:30;;;;;;;102.82;29.20;;;16.50;99.90;;;;;;5061352;28;20501;-77
2022/07/22 00:38:57;;;;;;;54.92;21.13;;;16.50;99.90;;;;;;5058918;28;20493;-77
2022/07/22 00:41:25;;;;;;;51.30;20.60;;;16.50;99.90;;;;;;5076596;28;20200;-75
2022/07/22 00:44:01;;;;;;;45.22;17.52;;;16.40;99.90;;;;;;5060869;28;20112;-76
2022/07/22 00:46:29;;;;;;;40.42;17.75;;;16.40;99.90;;;;;;5058121;28;20063;-76
2022/07/22 00:48:57;;;;;;;40.05;17.10;;;16.40;99.90;;;;;;5061148;28;20048;-75
2022/07/22 00:51:26;;;;;;;44.38;20.35;;;16.30;99.90;;;;;;5039912;28;20144;-76
2022/07/22 00:53:54;;;;;;;35.85;18.00;;;16.30;99.90;;;;;;5057507;28;20044;-75
2022/07/22 00:56:21;;;;;;;37.90;19.13;;;16.30;99.90;;;;;;5079940;28;20046;-75
2022/07/22 00:58:50;;;;;;;32.00;16.40;;;16.20;99.90;;;;;;5060996;28;20060;-76
2022/07/22 01:01:17;;;;;;;29.27;15.80;;;16.10;99.90;;;;;;5054472;28;20386;-76
2022/07/22 01:03:45;;;;;;;30.40;16.48;;;16.20;99.90;;;;;;5062630;28;20101;-76
2022/07/22 01:06:16;;;;;;;27.05;14.95;;;16.10;99.90;;;;;;5060122;28;20046;-76
2022/07/22 01:08:43;;;;;;;25.42;15.20;;;16.00;99.90;;;;;;5042685;28;20117;-76
2022/07/22 01:11:13;;;;;;;17.85;9.95;;;16.10;99.90;;;;;;5059822;28;20040;-75
2022/07/22 01:13:40;;;;;;;14.38;8.48;;;16.00;99.90;;;;;;5058946;28;20051;-76
2022/07/22 01:16:09;;;;;;;11.63;7.78;;;15.90;99.90;;;;;;5058689;28;20094;-76
2022/07/22 01:18:37;;;;;;;13.90;7.90;;;16.00;99.90;;;;;;5074500;28;20039;-76
2022/07/22 01:21:06;;;;;;;9.63;5.68;;;15.90;99.90;;;;;;5042850;28;20044;-76
2022/07/22 01:23:33;;;;;;;11.93;5.72;;;15.90;99.90;;;;;;5062405;28;20105;-75
2022/07/22 01:26:01;;;;;;;11.18;6.22;;;16.00;99.90;;;;;;5051715;28;20043;-77
2022/07/22 01:28:28;;;;;;;8.95;5.38;;;16.10;99.90;;;;;;5049362;28;20450;-76
2022/07/22 01:30:55;;;;;;;8.55;5.35;;;16.00;99.90;;;;;;5058281;28;20055;-77
2022/07/22 01:33:23;;;;;;;6.72;4.50;;;16.10;99.90;;;;;;5056596;28;20048;-77
2022/07/22 01:35:50;;;;;;;7.00;4.03;;;16.10;99.90;;;;;;5059560;28;20048;-78
2022/07/22 01:38:17;;;;;;;6.80;4.10;;;16.10;99.90;;;;;;5057484;28;20048;-78
2022/07/22 01:40:46;;;;;;;9.98;4.38;;;16.10;99.90;;;;;;5044757;28;20066;-77
2022/07/22 01:43:17;;;;;;;9.32;4.00;;;16.10;99.90;;;;;;5056828;28;20529;-76
2022/07/22 01:45:46;;;;;;;8.80;3.90;;;16.10;99.90;;;;;;5043112;28;20055;-76
2022/07/22 01:48:13;;;;;;;7.28;3.25;;;16.20;99.90;;;;;;5060999;28;20138;-75
2022/07/22 01:50:41;;;;;;;8.55;3.47;;;16.10;99.90;;;;;;5058871;28;20043;-77
2022/07/22 01:53:09;;;;;;;8.88;4.03;;;16.10;99.90;;;;;;5055437;28;20123;-76
2022/07/22 01:55:37;;;;;;;5.80;2.83;;;16.10;99.90;;;;;;5057867;28;20056;-77
2022/07/22 01:58:05;;;;;;;7.15;3.47;;;16.10;99.90;;;;;;5060806;28;20051;-77
2022/07/22 02:00:34;;;;;;;8.48;3.63;;;16.10;99.90;;;;;;5060921;28;20048;-76
2022/07/22 02:03:03;;;;;;;7.10;3.03;;;16.10;99.90;;;;;;5068852;28;20052;-79
2022/07/22 02:05:30;;;;;;;5.38;2.08;;;16.10;99.90;;;;;;5077816;28;20040;-77
2022/07/22 02:08:04;;;;;;;8.70;2.63;;;16.10;99.90;;;;;;5078245;28;20050;-79
2022/07/22 02:10:47;;;;;;;6.05;2.60;;;16.10;99.90;;;;;;5069203;28;20050;-77
2022/07/22 02:13:15;;;;;;;5.95;2.72;;;16.10;99.90;;;;;;5062719;28;20127;-77
2022/07/22 02:15:42;;;;;;;8.85;3.28;;;15.90;99.90;;;;;;5060318;28;20046;-76
2022/07/22 02:18:16;;;;;;;8.80;3.67;;;15.90;99.90;;;;;;5062224;28;20036;-77
2022/07/22 02:20:44;;;;;;;9.83;3.43;;;15.90;99.90;;;;;;5060635;28;20412;-77
2022/07/22 02:23:11;;;;;;;12.85;4.47;;;15.90;99.90;;;;;;5065006;28;20290;-77
2022/07/22 02:25:42;;;;;;;16.20;5.47;;;15.90;99.90;;;;;;5051683;28;20135;-76
2022/07/22 02:28:10;;;;;;;15.13;6.53;;;15.70;99.90;;;;;;5063685;28;20130;-76
2022/07/22 02:30:37;;;;;;;21.85;7.97;;;15.70;99.90;;;;;;5057390;28;21156;-76
2022/07/22 02:33:04;;;;;;;24.02;8.68;;;15.70;99.90;;;;;;5078323;28;20048;-76
2022/07/22 02:35:32;;;;;;;20.85;8.18;;;15.60;99.90;;;;;;5061451;28;20712;-76
2022/07/22 02:37:59;;;;;;;21.95;8.90;;;15.60;99.90;;;;;;5057215;28;20048;-76
2022/07/22 02:40:28;;;;;;;31.85;11.80;;;15.50;99.90;;;;;;5046502;28;20044;-75
2022/07/22 02:42:55;;;;;;;39.88;13.75;;;15.50;99.90;;;;;;5062503;28;20106;-78
2022/07/22 02:45:23;;;;;;;44.70;16.20;;;15.50;99.90;;;;;;5056267;28;20037;-76
2022/07/22 02:47:52;;;;;;;49.65;17.08;;;15.50;99.90;;;;;;5059995;28;20052;-76
2022/07/22 02:50:21;;;;;;;42.80;15.23;;;15.50;99.90;;;;;;5051383;28;20266;-77
2022/07/22 02:52:48;;;;;;;36.45;12.90;;;15.40;99.90;;;;;;5078439;28;20040;-77
2022/07/22 02:55:17;;;;;;;35.72;14.93;;;15.50;99.90;;;;;;5063325;28;20050;-76
2022/07/22 02:57:44;;;;;;;34.50;14.50;;;15.40;99.90;;;;;;5050982;28;20106;-77
2022/07/22 03:00:12;;;;;;;32.65;14.35;;;15.50;99.90;;;;;;5063189;28;20135;-77
2022/07/22 03:02:40;;;;;;;33.78;15.95;;;15.50;99.90;;;;;;5061578;28;20497;-76
2022/07/22 03:05:07;;;;;;;33.70;18.15;;;15.50;99.90;;;;;;5062117;28;20146;-76
2022/07/22 03:07:40;;;;;;;38.67;17.90;;;15.50;99.90;;;;;;5055982;28;20131;-77
2022/07/22 03:10:09;;;;;;;41.13;17.90;;;15.40;99.90;;;;;;5059264;28;20562;-77
2022/07/22 03:12:37;;;;;;;32.38;17.17;;;15.30;99.90;;;;;;5061117;28;20036;-77
2022/07/22 03:15:04;;;;;;;24.65;14.80;;;15.30;99.90;;;;;;5065779;28;20036;-76
2022/07/22 03:17:36;;;;;;;28.33;16.05;;;15.20;99.90;;;;;;5064315;28;20043;-77
2022/07/22 03:20:06;;;;;;;25.65;16.25;;;15.10;99.90;;;;;;5051831;28;20647;-76
2022/07/22 03:22:33;;;;;;;29.33;18.85;;;15.10;99.90;;;;;;5060861;28;20045;-77
2022/07/22 03:25:00;;;;;;;33.10;15.88;;;15.20;99.90;;;;;;5063693;28;20040;-77
2022/07/22 03:27:27;;;;;;;24.23;14.23;;;15.10;99.90;;;;;;5061115;28;20044;-77
2022/07/22 03:29:54;;;;;;;17.85;13.00;;;15.20;99.90;;;;;;5062127;28;20166;-76
2022/07/22 03:32:21;;;;;;;21.80;14.35;;;15.20;99.90;;;;;;5085612;28;20043;-76
2022/07/22 03:34:48;;;;;;;19.38;13.18;;;15.30;99.90;;;;;;5062363;28;20040;-76
2022/07/22 03:37:16;;;;;;;19.15;13.48;;;15.30;99.90;;;;;;5046550;28;20557;-77
2022/07/22 03:39:43;;;;;;;26.05;14.55;;;15.30;99.90;;;;;;5063779;28;20044;-77
2022/07/22 03:42:11;;;;;;;26.23;15.13;;;15.30;99.90;;;;;;5066603;28;20040;-77
2022/07/22 03:44:47;;;;;;;28.70;16.77;;;15.30;99.90;;;;;;5063089;28;20515;-76
2022/07/22 03:47:18;;;;;;;26.70;15.68;;;15.30;99.90;;;;;;5067966;28;20070;-76
2022/07/22 03:49:46;;;;;;;30.35;17.88;;;15.40;99.90;;;;;;5062207;28;20079;-77
2022/07/22 03:52:15;;;;;;;39.92;18.90;;;15.40;99.90;;;;;;5065164;28;20228;-76
2022/07/22 03:54:43;;;;;;;30.35;18.00;;;15.30;99.90;;;;;;5046739;28;20050;-77
2022/07/22 03:57:11;;;;;;;32.78;19.02;;;15.30;99.90;;;;;;5067379;28;20039;-77
2022/07/22 03:59:38;;;;;;;36.28;18.42;;;15.30;99.90;;;;;;5061179;28;20039;-77
2022/07/22 04:02:05;;;;;;;37.10;19.50;;;15.40;99.90;;;;;;5060510;28;20139;-76
2022/07/22 04:04:32;;;;;;;39.53;21.63;;;15.50;99.90;;;;;;5058234;28;20691;-76
2022/07/22 04:06:59;;;;;;;49.92;22.40;;;15.50;99.90;;;;;;5060875;28;20155;-77
2022/07/22 04:09:32;;;;;;;40.38;21.10;;;15.40;99.90;;;;;;5057921;28;20063;-77
2022/07/22 04:11:59;;;;;;;56.72;25.08;;;15.40;99.90;;;;;;5053641;28;20051;-77
2022/07/22 04:14:26;;;;;;;51.17;24.38;;;15.40;99.90;;;;;;5059072;28;20394;-76
2022/07/22 04:16:56;;;;;;;50.95;23.52;;;15.40;99.90;;;;;;5052979;28;20048;-76
2022/07/22 04:19:23;;;;;;;51.67;23.90;;;15.40;99.90;;;;;;5062170;28;20047;-76
2022/07/22 04:21:55;;;;;;;43.22;22.67;;;15.40;99.90;;;;;;5062651;28;20056;-76
2022/07/22 04:24:25;;;;;;;50.15;23.15;;;15.40;99.90;;;;;;5061068;28;20048;-77
2022/07/22 04:26:52;;;;;;;50.00;24.35;;;15.40;99.90;;;;;;5056250;28;20055;-77
2022/07/22 04:29:19;;;;;;;55.50;22.63;;;15.40;99.90;;;;;;5050047;28;20048;-76
2022/07/22 04:31:46;;;;;;;63.38;24.00;;;15.40;99.90;;;;;;5059578;28;20071;-76
2022/07/22 04:34:16;;;;;;;45.13;22.23;;;15.40;99.90;;;;;;5061324;28;20094;-76
2022/07/22 04:36:43;;;;;;;51.92;23.20;;;15.40;99.90;;;;;;5040297;28;20096;-77
2022/07/22 04:39:10;;;;;;;47.03;19.17;;;15.50;99.90;;;;;;5051269;28;20043;-75
2022/07/22 04:41:42;;;;;;;42.30;18.52;;;15.50;99.90;;;;;;5045655;28;20059;-76
2022/07/22 04:44:12;;;;;;;40.20;17.02;;;15.60;99.90;;;;;;5056400;28;20050;-77
2022/07/22 04:46:39;;;;;;;42.08;17.35;;;15.50;99.90;;;;;;5050007;28;20052;-76
2022/07/22 04:49:07;;;;;;;34.45;16.45;;;15.40;99.90;;;;;;5049230;28;20041;-76
2022/07/22 04:51:34;;;;;;;34.53;17.38;;;15.40;99.90;;;;;;5054115;28;20675;-76
2022/07/22 04:54:05;;;;;;;39.47;17.25;;;15.40;99.90;;;;;;5047096;28;20044;-76
2022/07/22 04:56:37;;;;;;;39.70;16.88;;;15.40;99.90;;;;;;5042149;28;20105;-76
2022/07/22 04:59:04;;;;;;;44.35;17.60;;;15.40;99.90;;;;;;5046475;28;20041;-77
2022/07/22 05:01:31;;;;;;;47.00;17.42;;;15.40;99.90;;;;;;5047950;28;20407;-76
2022/07/22 05:04:00;;;;;;;44.33;16.80;;;15.50;99.90;;;;;;5070010;28;20121;-75
2022/07/22 05:06:27;;;;;;;35.53;15.95;;;15.50;99.90;;;;;;5043798;28;20048;-76
2022/07/22 05:08:55;;;;;;;30.95;13.15;;;15.50;99.90;;;;;;5040670;28;20071;-77
2022/07/22 05:11:23;;;;;;;34.40;13.73;;;15.40;99.90;;;;;;5071405;28;20578;-76
2022/07/22 05:13:50;;;;;;;30.00;12.85;;;15.40;99.90;;;;;;5034988;28;20548;-76
2022/07/22 05:16:17;;;;;;;30.23;12.95;;;15.40;99.90;;;;;;5055800;28;20321;-76
2022/07/22 05:18:44;;;;;;;31.90;14.15;;;15.40;99.90;;;;;;5069179;28;20265;-76
2022/07/22 05:21:14;;;;;;;34.45;15.52;;;15.40;99.90;;;;;;5066922;28;20048;-76
2022/07/22 05:23:42;;;;;;;42.17;16.13;;;15.40;99.90;;;;;;5058366;28;20048;-77
2022/07/22 05:26:10;;;;;;;33.97;17.05;;;15.50;99.90;;;;;;5054343;28;20106;-78
2022/07/22 05:28:37;;;;;;;38.17;17.90;;;15.50;99.90;;;;;;5044898;28;20079;-76
2022/07/22 05:31:04;;;;;;;40.95;18.60;;;15.50;99.90;;;;;;5057653;28;20087;-77
2022/07/22 05:33:32;;;;;;;40.42;19.77;;;15.40;99.90;;;;;;5056483;28;20058;-77
2022/07/22 05:36:10;;;;;;;39.90;18.52;;;15.50;99.90;;;;;;5047057;28;20056;-77
2022/07/22 05:38:43;;;;;;;40.45;19.83;;;15.50;99.90;;;;;;5057596;28;20605;-78
2022/07/22 05:41:10;;;;;;;42.47;19.02;;;15.50;99.90;;;;;;5074823;28;20229;-77
2022/07/22 05:43:38;;;;;;;41.50;19.88;;;15.40;99.90;;;;;;5051542;28;20048;-78
2022/07/22 05:46:07;;;;;;;36.90;19.45;;;15.40;99.90;;;;;;5055758;28;20071;-78
2022/07/22 05:48:34;;;;;;;45.47;19.02;;;15.40;99.90;;;;;;5048293;28;20049;-78
2022/07/22 05:51:01;;;;;;;45.28;18.30;;;15.30;99.90;;;;;;5052329;28;20072;-77
2022/07/22 05:53:30;;;;;;;42.90;19.50;;;15.40;99.90;;;;;;5053418;28;20044;-78
2022/07/22 05:55:57;;;;;;;38.38;18.30;;;15.40;99.90;;;;;;5059166;28;20231;-77
2022/07/22 05:58:32;;;;;;;43.28;19.10;;;15.50;99.90;;;;;;5046474;28;20036;-77
2022/07/22 06:00:59;;;;;;;46.67;19.88;;;15.50;99.90;;;;;;5049009;28;20033;-77
2022/07/22 06:03:25;;;;;;;41.40;20.33;;;15.50;99.90;;;;;;5043873;28;20044;-78
2022/07/22 06:05:52;;;;;;;39.53;18.42;;;15.40;99.90;;;;;;5067060;28;20043;-77
2022/07/22 06:08:19;;;;;;;34.05;16.30;;;15.40;99.90;;;;;;5034986;28;20506;-77
2022/07/22 06:10:49;;;;;;;34.15;14.57;;;15.30;99.90;;;;;;5046659;28;20066;-76
2022/07/22 06:13:17;;;;;;;41.58;17.45;;;15.30;99.90;;;;;;5058085;28;20040;-76
2022/07/22 06:15:44;;;;;;;44.60;17.98;;;15.40;99.90;;;;;;5056087;28;20055;-77
2022/07/22 06:18:12;;;;;;;37.88;16.75;;;15.50;99.90;;;;;;5050544;28;20102;-78
2022/07/22 06:20:39;;;;;;;35.40;15.07;;;15.50;99.90;;;;;;5046836;28;20040;-77
2022/07/22 06:23:06;;;;;;;43.22;16.55;;;15.50;99.90;;;;;;5074315;28;20068;-77
2022/07/22 06:25:34;;;;;;;36.45;15.85;;;15.50;99.90;;;;;;5058803;28;20037;-78
2022/07/22 06:28:21;;;;;;;44.20;17.05;;;15.50;99.90;;;;;;5058258;28;20047;-77
2022/07/22 06:30:48;;;;;;;48.22;17.30;;;15.50;99.90;;;;;;5053258;28;20627;-77
2022/07/22 06:33:16;;;;;;;30.42;13.60;;;15.50;99.90;;;;;;5057692;28;20048;-77
2022/07/22 06:35:43;;;;;;;45.45;15.05;;;15.40;99.90;;;;;;5067732;28;20434;-77
2022/07/22 06:38:10;;;;;;;38.20;13.55;;;15.40;99.90;;;;;;5036294;28;20048;-77
2022/07/22 06:41:19;;;;;;;30.67;11.90;;;15.30;99.90;;;;;;5073868;28;20040;-76
2022/07/22 06:44:04;;;;;;;26.67;11.75;;;15.30;99.90;;;;;;5074197;28;20286;-77
2022/07/22 06:46:43;;;;;;;34.75;13.43;;;15.20;99.90;;;;;;5057070;28;20041;-77
2022/07/22 06:49:10;;;;;;;41.15;13.88;;;15.20;99.90;;;;;;5051618;28;20040;-78
2022/07/22 06:51:40;;;;;;;29.58;12.30;;;15.30;99.90;;;;;;5061411;28;20032;-77
2022/07/22 06:54:07;;;;;;;32.95;12.43;;;15.40;99.90;;;;;;5052211;28;20039;-77
2022/07/22 06:56:34;;;;;;;30.08;11.38;;;15.50;99.90;;;;;;5056892;28;20044;-76
2022/07/22 06:59:01;;;;;;;30.50;11.27;;;15.60;99.90;;;;;;5051554;28;20048;-78
2022/07/22 07:01:28;;;;;;;39.13;12.98;;;15.50;99.90;;;;;;5046644;28;20044;-77
2022/07/22 07:03:59;;;;;;;28.75;12.93;;;15.60;99.90;;;;;;5056164;28;20102;-76
2022/07/22 07:06:26;;;;;;;28.17;11.30;;;15.70;99.90;;;;;;5080580;28;20244;-77
2022/07/22 07:09:07;;;;;;;26.15;13.05;;;15.80;99.90;;;;;;5055823;28;20527;-76
2022/07/22 07:11:36;;;;;;;31.02;13.02;;;15.90;99.90;;;;;;5062645;28;20032;-77
2022/07/22 07:14:12;;;;;;;24.80;12.35;;;15.90;99.90;;;;;;5062226;28;20486;-78
2022/07/22 07:16:38;;;;;;;23.77;11.73;;;16.00;99.90;;;;;;5054915;28;20052;-77
2022/07/22 07:19:05;;;;;;;26.35;12.30;;;15.90;99.90;;;;;;5076466;28;20051;-77
2022/07/22 07:21:32;;;;;;;23.67;12.40;;;16.00;99.90;;;;;;5057611;28;20047;-78
2022/07/22 07:24:01;;;;;;;26.17;13.18;;;16.10;99.90;;;;;;5056524;28;20062;-77
2022/07/22 07:26:28;;;;;;;20.77;10.93;;;16.00;99.90;;;;;;5060168;28;20063;-77
2022/07/22 07:28:55;;;;;;;19.23;11.48;;;16.00;99.90;;;;;;5032436;28;20040;-75
2022/07/22 07:31:30;;;;;;;21.52;12.00;;;15.90;99.90;;;;;;5047835;28;20048;-77
2022/07/22 07:34:00;;;;;;;26.90;12.52;;;16.00;99.90;;;;;;5045101;28;20036;-77
2022/07/22 07:36:27;;;;;;;18.88;11.63;;;16.00;99.90;;;;;;5049619;28;20041;-78
2022/07/22 07:38:54;;;;;;;22.10;11.07;;;15.90;99.90;;;;;;5044531;28;20044;-77
2022/07/22 07:41:22;;;;;;;19.38;11.10;;;15.90;99.90;;;;;;5072467;28;20070;-77
2022/07/22 07:43:50;;;;;;;19.38;12.02;;;15.90;99.90;;;;;;5051589;28;20458;-77
2022/07/22 07:46:17;;;;;;;21.58;11.02;;;15.90;99.90;;;;;;5051919;28;20416;-76
2022/07/22 07:48:45;;;;;;;22.05;10.68;;;15.90;99.90;;;;;;5055923;28;20058;-77
2022/07/22 07:51:11;;;;;;;24.02;12.43;;;15.90;99.90;;;;;;5044836;28;20040;-75
2022/07/22 07:53:40;;;;;;;16.98;10.38;;;16.10;99.90;;;;;;5048520;28;20086;-77
2022/07/22 07:56:08;;;;;;;18.27;10.07;;;16.10;99.90;;;;;;5047551;28;20482;-77
2022/07/22 07:58:35;;;;;;;27.42;11.63;;;16.00;99.90;;;;;;5037983;28;20071;-77
2022/07/22 08:01:06;;;;;;;20.35;10.80;;;16.10;99.90;;;;;;5038080;28;20043;-77
2022/07/22 08:03:35;;;;;;;21.80;10.85;;;16.00;99.90;;;;;;5052138;28;20058;-77
2022/07/22 08:06:04;;;;;;;16.67;9.38;;;15.90;99.90;;;;;;5070198;28;20131;-78
2022/07/22 08:08:32;;;;;;;19.27;9.50;;;15.90;99.90;;;;;;5053047;28;20044;-77
2022/07/22 08:11:05;;;;;;;18.02;9.57;;;15.90;99.90;;;;;;5050031;28;20537;-77
2022/07/22 08:13:36;;;;;;;19.33;8.68;;;15.90;99.90;;;;;;5071086;28;20112;-76
2022/07/22 08:16:33;;;;;;;17.55;7.88;;;15.80;99.90;;;;;;5050081;28;20048;-76
2022/07/22 08:19:00;;;;;;;14.93;8.30;;;15.90;99.90;;;;;;5058054;28;20052;-77
2022/07/22 08:21:28;;;;;;;15.15;6.80;;;15.80;99.90;;;;;;5056539;28;20247;-77
2022/07/22 08:23:57;;;;;;;13.18;7.00;;;15.80;99.90;;;;;;5051685;28;20048;-76
2022/07/22 08:26:24;;;;;;;17.48;6.80;;;15.70;99.90;;;;;;5037733;28;20051;-76
2022/07/22 08:28:57;;;;;;;13.35;6.75;;;15.80;99.90;;;;;;5026386;28;20048;-76
2022/07/22 08:31:27;;;;;;;17.92;8.07;;;15.90;99.90;;;;;;5053782;28;20147;-76
2022/07/22 08:33:56;;;;;;;14.80;8.13;;;15.90;99.90;;;;;;5064465;28;20043;-76
2022/07/22 08:36:26;;;;;;;19.10;7.68;;;16.00;99.90;;;;;;5048948;28;20040;-77
2022/07/22 08:38:53;;;;;;;15.00;9.05;;;16.10;99.90;;;;;;5053839;28;20075;-77
2022/07/22 08:41:22;;;;;;;15.65;9.25;;;16.00;99.90;;;;;;5053685;28;20071;-77
2022/07/22 08:43:50;;;;;;;17.15;9.50;;;16.00;99.90;;;;;;5041255;28;20090;-77
2022/07/22 08:46:18;;;;;;;18.40;10.55;;;16.20;99.90;;;;;;5048145;28;20090;-76
2022/07/22 08:49:15;;;;;;;19.52;10.27;;;16.10;99.90;;;;;;5057002;28;20119;-77
2022/07/22 08:52:07;;;;;;;19.10;10.35;;;16.20;99.90;;;;;;5053318;28;20047;-76
2022/07/22 08:54:40;;;;;;;19.40;10.90;;;16.20;99.90;;;;;;5054123;28;20655;-76
2022/07/22 08:57:09;;;;;;;21.38;11.15;;;16.20;99.90;;;;;;5038306;28;20622;-77
2022/07/22 08:59:54;;;;;;;19.85;12.98;;;16.20;99.90;;;;;;5051279;28;20040;-77
2022/07/22 09:02:23;;;;;;;17.60;11.05;;;15.90;99.90;;;;;;5049206;28;20071;-77
2022/07/22 09:04:49;;;;;;;23.65;12.80;;;15.90;99.90;;;;;;5053057;28;20044;-78
2022/07/22 09:07:31;;;;;;;23.25;12.95;;;16.20;99.90;;;;;;5051834;28;20550;-78
2022/07/22 09:10:08;;;;;;;16.88;11.35;;;16.30;99.90;;;;;;5061460;28;20737;-77
2022/07/22 09:12:58;;;;;;;19.52;11.35;;;16.50;99.90;;;;;;5077507;28;20040;-77
2022/07/22 09:15:49;;;;;;;21.20;11.80;;;16.60;99.90;;;;;;5063613;28;20043;-80
2022/07/22 09:18:47;;;;;;;20.83;12.60;;;16.70;99.90;;;;;;5071066;28;20052;-79
2022/07/22 09:21:29;;;;;;;21.52;13.60;;;16.70;99.90;;;;;;5055626;28;20044;-79
2022/07/22 09:24:30;;;;;;;24.52;13.10;;;16.70;99.90;;;;;;5061689;28;20211;-78
2022/07/22 09:27:08;;;;;;;20.40;12.35;;;16.80;99.90;;;;;;5050730;28;20079;-79
2022/07/22 09:29:50;;;;;;;17.75;12.40;;;16.80;99.90;;;;;;5068678;28;20139;-79
2022/07/22 09:32:18;;;;;;;24.50;14.02;;;16.80;99.90;;;;;;5050379;28;20132;-78
2022/07/22 09:35:01;;;;;;;22.30;13.55;;;16.80;99.90;;;;;;5065152;28;20036;-79
2022/07/22 09:37:30;;;;;;;18.60;13.18;;;16.70;99.90;;;;;;5053325;28;20101;-78
2022/07/22 09:40:12;;;;;;;21.90;11.70;;;16.70;99.90;;;;;;5040431;28;20051;-78
2022/07/22 09:42:51;;;;;;;21.20;11.50;;;16.70;99.90;;;;;;5052967;28;20135;-77
2022/07/22 09:45:20;;;;;;;21.27;11.65;;;16.70;99.90;;;;;;5043437;28;20048;-77
2022/07/22 09:47:49;;;;;;;19.17;10.63;;;16.70;99.90;;;;;;5055411;28;20041;-77
2022/07/22 09:50:35;;;;;;;19.15;11.48;;;16.60;99.90;;;;;;5065772;28;20063;-76
2022/07/22 09:53:22;;;;;;;19.95;11.75;;;16.50;99.90;;;;;;5044408;28;20739;-77
2022/07/22 09:56:00;;;;;;;24.15;12.98;;;16.50;99.90;;;;;;5053121;28;20040;-79
2022/07/22 09:58:28;;;;;;;25.80;14.50;;;16.40;99.90;;;;;;5051580;28;20048;-79
2022/07/22 10:00:59;;;;;;;25.27;12.93;;;16.40;99.90;;;;;;5057502;28;20131;-78
2022/07/22 10:03:31;;;;;;;22.05;12.55;;;16.60;99.90;;;;;;5059826;28;20055;-78
2022/07/22 10:06:01;;;;;;;22.88;11.32;;;16.50;99.90;;;;;;5062281;28;20079;-78
2022/07/22 10:08:32;;;;;;;19.70;11.48;;;16.70;99.90;;;;;;5056560;28;20048;-79
2022/07/22 10:11:04;;;;;;;17.92;10.80;;;16.90;99.90;;;;;;5040468;28;20541;-77
2022/07/22 10:13:32;;;;;;;16.40;9.93;;;16.90;99.90;;;;;;5054814;28;20039;-77
2022/07/22 10:16:00;;;;;;;16.13;9.80;;;17.00;99.90;;;;;;5039973;28;20064;-77
2022/07/22 10:18:31;;;;;;;17.15;10.98;;;17.10;99.90;;;;;;5042242;28;20405;-77
2022/07/22 10:21:06;;;;;;;17.85;11.95;;;17.40;99.90;;;;;;5051828;28;20048;-76
2022/07/22 10:23:33;;;;;;;11.75;9.88;;;17.60;99.90;;;;;;5051320;28;20398;-77
2022/07/22 10:26:01;;;;;;;14.07;12.68;;;17.80;99.90;;;;;;5059113;28;20065;-77
2022/07/22 10:28:35;;;;;;;15.20;13.77;;;18.00;99.90;;;;;;5048018;28;20041;-78
2022/07/22 10:31:24;;;;;;;17.48;15.70;;;18.20;99.90;;;;;;5060009;28;20044;-78
2022/07/22 10:33:53;;;;;;;16.75;15.48;;;18.60;99.90;;;;;;5066890;28;20221;-79
2022/07/22 10:36:37;;;;;;;18.77;17.10;;;18.80;99.90;;;;;;5076573;28;20063;-79
2022/07/22 10:39:05;;;;;;;18.63;16.98;;;18.70;99.90;;;;;;5071518;28;20044;-81
2022/07/22 10:41:38;;;;;;;18.58;17.08;;;18.60;99.90;;;;;;5079661;28;20051;-82
2022/07/22 10:44:05;;;;;;;17.92;16.08;;;18.20;99.90;;;;;;5077324;28;20040;-79
2022/07/22 10:46:53;;;;;;;16.73;15.05;;;18.00;99.90;;;;;;5054541;28;20040;-80
2022/07/22 10:49:23;;;;;;;17.00;15.60;;;18.00;99.90;;;;;;5074595;28;20040;-81
2022/07/22 10:52:21;;;;;;;16.70;15.25;;;17.90;99.90;;;;;;5069774;28;20105;-82
2022/07/22 10:55:24;;;;;;;17.25;15.73;;;17.80;99.90;;;;;;5057007;28;20048;-78
2022/07/22 10:57:51;;;;;;;17.88;16.23;;;18.00;99.90;;;;;;5082430;28;20430;-79
2022/07/22 11:00:18;;;;;;;17.02;15.25;;;18.10;99.90;;;;;;5092235;28;20177;-78
2022/07/22 11:02:45;;;;;;;19.30;17.52;;;18.10;99.90;;;;;;5086012;28;20057;-79
2022/07/22 11:05:12;;;;;;;19.60;17.80;;;18.10;99.90;;;;;;5070277;28;20043;-77
2022/07/22 11:07:43;;;;;;;20.13;18.42;;;18.20;99.90;;;;;;5070238;28;20122;-77
2022/07/22 11:10:15;;;;;;;20.73;18.92;;;18.30;99.90;;;;;;5065125;28;20037;-81
2022/07/22 11:12:49;;;;;;;21.42;19.52;;;18.40;99.90;;;;;;5074654;28;20068;-80
2022/07/22 11:15:26;;;;;;;18.65;17.10;;;18.50;99.90;;;;;;5063949;28;20051;-79
2022/07/22 11:17:57;;;;;;;20.50;18.63;;;18.40;99.90;;;;;;5066417;22;20080;-71
2022/07/22 11:20:24;;;;;;;20.50;18.48;;;18.00;99.90;;;;;;5007793;28;20437;-71
2022/07/22 11:22:51;;;;;;;19.48;17.88;;;17.90;99.90;;;;;;4997980;28;20178;-72
2022/07/22 11:25:18;;;;;;;20.40;18.45;;;17.80;99.90;;;;;;4998356;28;20056;-72
2022/07/22 11:27:52;;;;;;;20.88;18.73;;;17.80;99.90;;;;;;4982948;28;20058;-72
2022/07/22 11:30:19;;;;;;;21.20;19.00;;;17.90;99.90;;;;;;4998819;28;20115;-71
2022/07/22 11:32:48;;;;;;;21.77;19.40;;;17.80;99.90;;;;;;4981979;28;20046;-70
2022/07/22 11:35:15;;;;;;;21.50;19.15;;;17.70;99.90;;;;;;4999352;28;20053;-71
2022/07/22 11:37:42;;;;;;;23.17;20.65;;;17.50;99.90;;;;;;4981940;28;20042;-70
2022/07/22 11:40:10;;;;;;;22.38;20.23;;;17.40;99.90;;;;;;4985172;28;20314;-71
2022/07/22 11:42:37;;;;;;;22.38;18.98;;;17.30;99.90;;;;;;4970576;28;20877;-72
2022/07/22 11:45:05;;;;;;;21.42;19.00;;;17.30;99.90;;;;;;4981425;28;20164;-72
2022/07/22 11:47:32;;;;;;;22.50;20.38;;;17.50;99.90;;;;;;4969907;28;20248;-73
2022/07/22 11:49:59;;;;;;;21.75;19.85;;;17.60;99.90;;;;;;5004400;28;20124;-72
2022/07/22 11:52:26;;;;;;;21.15;19.00;;;17.70;99.90;;;;;;5010301;28;20440;-73
2022/07/22 11:54:53;;;;;;;22.65;20.40;;;17.80;99.90;;;;;;4977068;28;20056;-72
2022/07/22 11:57:20;;;;;;;22.58;20.15;;;17.90;99.90;;;;;;5004549;28;20049;-72
2022/07/22 11:59:47;;;;;;;23.52;21.10;;;18.00;99.90;;;;;;5002505;28;20053;-71
2022/07/22 12:02:14;;;;;;;23.95;21.67;;;18.20;99.90;;;;;;4976042;28;20316;-72
2022/07/22 12:04:45;;;;;;;24.63;22.25;;;18.10;99.90;;;;;;4996248;28;20422;-71
2022/07/22 12:07:12;;;;;;;23.40;21.33;;;18.00;99.90;;;;;;4997571;28;20041;-72
2022/07/22 12:09:42;;;;;;;23.35;20.90;;;18.00;99.90;;;;;;4999245;28;20127;-72
2022/07/22 12:12:09;;;;;;;23.00;20.77;;;17.90;99.90;;;;;;4983062;28;20372;-72
2022/07/22 12:14:35;;;;;;;22.35;20.45;;;17.90;99.90;;;;;;4980360;28;20524;-72
2022/07/22 12:17:06;;;;;;;21.83;20.00;;;17.90;99.90;;;;;;4979930;28;20132;-72
2022/07/22 12:19:35;;;;;;;23.58;21.42;;;18.00;99.90;;;;;;5003982;28;20256;-70
2022/07/22 12:22:06;;;;;;;21.65;19.90;;;18.20;99.90;;;;;;5002488;28;20498;-71
2022/07/22 12:24:38;;;;;;;22.52;20.67;;;18.30;99.90;;;;;;4981955;28;20059;-71
2022/07/22 12:27:06;;;;;;;23.17;21.48;;;18.50;99.90;;;;;;4998585;28;20474;-70
2022/07/22 12:29:35;;;;;;;21.85;20.25;;;18.50;99.90;;;;;;4998682;28;20048;-70
2022/07/22 12:32:09;;;;;;;22.88;20.75;;;18.40;99.90;;;;;;4963337;28;20033;-70
2022/07/22 12:34:38;;;;;;;22.13;20.38;;;18.30;99.90;;;;;;4996427;28;20095;-70
2022/07/22 12:37:26;;;;;;;20.75;19.20;;;18.20;99.90;;;;;;4997613;28;20038;-71
2022/07/22 12:40:04;;;;;;;21.08;19.42;;;18.40;99.90;;;;;;4995013;28;20555;-71
2022/07/22 12:42:33;;;;;;;22.30;20.42;;;18.40;99.90;;;;;;5021271;22;20510;-73
2022/07/22 12:45:07;;;;;;;23.00;21.10;;;18.50;99.90;;;;;;5048945;28;20403;-73